TimeCET,TemperatureF,Dew PointF,Humidity,Sea Level PressureIn,VisibilityMPH,Wind Direction,Wind SpeedMPH,Gust SpeedMPH,PrecipitationIn,Events,Conditions,WindDirDegrees,DateUTC
12:00 AM,48.2,46.4,93,29.80,4.3,ENE,10.4,-,N/A,,Scattered Clouds,60,2013-02-28 23:00:00
12:30 AM,48.2,46.4,93,29.80,4.3,ENE,9.2,-,N/A,,Scattered Clouds,60,2013-02-28 23:30:00
1:00 AM,47,45,89,29.80,7,ENE,8.1,,,,Partly Cloudy,60,2013-03-01 00:00:00
1:00 AM,48.2,46.4,93,29.80,6.2,ENE,9.2,-,N/A,,Scattered Clouds,60,2013-03-01 00:00:00
1:30 AM,48.2,46.4,93,29.77,6.2,ENE,8.1,-,N/A,,Scattered Clouds,70,2013-03-01 00:30:00
2:00 AM,48.2,46.4,93,29.77,6.2,East,9.2,-,N/A,,Scattered Clouds,80,2013-03-01 01:00:00
2:30 AM,48.2,46.4,93,29.77,6.2,ENE,10.4,-,N/A,,Scattered Clouds,70,2013-03-01 01:30:00
3:00 AM,48.2,46.4,93,29.77,6.2,ENE,9.2,-,N/A,,Scattered Clouds,60,2013-03-01 02:00:00
3:30 AM,48.2,46.4,93,29.77,6.2,ENE,6.9,-,N/A,,Scattered Clouds,70,2013-03-01 02:30:00
4:00 AM,46.4,44.6,93,29.74,6.2,East,2.3,-,N/A,,Scattered Clouds,80,2013-03-01 03:00:00
4:30 AM,46.4,44.6,93,29.74,6.2,Variable,1.2,-,N/A,,Scattered Clouds,0,2013-03-01 03:30:00
5:30 AM,44.6,44.6,100,29.74,6.2,NE,5.8,-,N/A,,Scattered Clouds,50,2013-03-01 04:30:00
6:00 AM,44.6,42.8,93,29.74,6.2,ENE,4.6,-,N/A,,Scattered Clouds,70,2013-03-01 05:00:00
6:30 AM,46.4,44.6,93,29.74,6.2,ENE,5.8,-,N/A,,Mostly Cloudy,70,2013-03-01 05:30:00
7:00 AM,45,43,89,29.75,9,ENE,8.1,,,,Partly Cloudy,70,2013-03-01 06:00:00
7:00 AM,46.4,44.6,93,29.74,6.2,Variable,2.3,-,N/A,,Scattered Clouds,0,2013-03-01 06:00:00
7:30 AM,46.4,44.6,93,29.74,6.2,NE,5.8,-,N/A,,Scattered Clouds,50,2013-03-01 06:30:00
8:00 AM,46.4,44.6,93,29.74,6.2,NE,4.6,-,N/A,,Scattered Clouds,50,2013-03-01 07:00:00
8:30 AM,46.4,44.6,93,29.74,6.2,NE,4.6,-,N/A,,Scattered Clouds,50,2013-03-01 07:30:00
9:00 AM,48.2,46.4,93,29.74,6.2,NE,4.6,-,N/A,,Scattered Clouds,50,2013-03-01 08:00:00
9:30 AM,50.0,46.4,87,29.74,6.2,ENE,4.6,-,N/A,,Partly Cloudy,60,2013-03-01 08:30:00
10:00 AM,50.0,46.4,87,29.74,6.2,East,2.3,-,N/A,,Partly Cloudy,80,2013-03-01 09:00:00
11:30 AM,53.6,46.4,77,29.74,6.2,Variable,1.2,-,N/A,,Partly Cloudy,0,2013-03-01 10:30:00
12:00 PM,53.6,46.4,77,29.71,6.2,Variable,2.3,-,N/A,,Partly Cloudy,0,2013-03-01 11:00:00
12:30 PM,53.6,46.4,77,29.71,6.2,West,3.5,-,N/A,,Partly Cloudy,260,2013-03-01 11:30:00
1:00 PM,53,43,58,29.73,14,SSW,6.9,,,,Scattered Clouds,210,2013-03-01 12:00:00
1:00 PM,53.6,46.4,77,29.71,6.2,SW,4.6,-,N/A,,Partly Cloudy,220,2013-03-01 12:00:00
1:30 PM,53.6,46.4,77,29.71,6.2,SW,4.6,-,N/A,,Partly Cloudy,230,2013-03-01 12:30:00
2:00 PM,55.4,46.4,72,29.68,6.2,SW,8.1,-,N/A,,Partly Cloudy,230,2013-03-01 13:00:00
2:30 PM,57.2,50.0,77,29.68,6.2,SW,8.1,-,N/A,,Partly Cloudy,230,2013-03-01 13:30:00
3:00 PM,55.4,46.4,72,29.68,6.2,WSW,10.4,-,N/A,,Scattered Clouds,240,2013-03-01 14:00:00
3:30 PM,55.4,46.4,72,29.68,6.2,WNW,8.1,-,N/A,,Scattered Clouds,300,2013-03-01 14:30:00
4:00 PM,55.4,44.6,67,29.68,6.2,West,15.0,-,N/A,,Scattered Clouds,260,2013-03-01 15:00:00
4:30 PM,53.6,44.6,72,29.68,6.2,WSW,10.4,-,N/A,,Scattered Clouds,250,2013-03-01 15:30:00
5:00 PM,51.8,44.6,76,29.68,6.2,WSW,10.4,-,N/A,,Scattered Clouds,250,2013-03-01 16:00:00
5:30 PM,51.8,44.6,76,29.68,6.2,West,12.7,-,N/A,,Partly Cloudy,260,2013-03-01 16:30:00
6:00 PM,50.0,44.6,82,29.68,6.2,West,11.5,-,N/A,,Partly Cloudy,260,2013-03-01 17:00:00
6:30 PM,50.0,44.6,82,29.68,6.2,NW,9.2,-,N/A,,Partly Cloudy,320,2013-03-01 17:30:00
7:00 PM,49,41,66,29.70,16,NNW,3.5,,,,Scattered Clouds,340,2013-03-01 18:00:00
7:00 PM,50.0,44.6,82,29.68,6.2,NNW,3.5,-,N/A,,Partly Cloudy,330,2013-03-01 18:00:00
7:30 PM,50.0,44.6,82,29.71,6.2,Variable,1.2,-,N/A,,Partly Cloudy,0,2013-03-01 18:30:00
8:30 PM,50.0,44.6,82,29.77,6.2,NE,4.6,-,N/A,,Partly Cloudy,50,2013-03-01 19:30:00
9:00 PM,50.0,46.4,87,29.77,6.2,North,4.6,-,N/A,,Partly Cloudy,10,2013-03-01 20:00:00
9:30 PM,50.0,44.6,82,29.80,6.2,North,3.5,-,N/A,Rain,Light Rain,360,2013-03-01 20:30:00
10:00 PM,50.0,44.6,82,29.80,6.2,NNE,10.4,-,N/A,Rain,Light Rain,20,2013-03-01 21:00:00
10:30 PM,50.0,46.4,87,29.80,6.2,NNE,9.2,-,N/A,Rain,Light Rain,20,2013-03-01 21:30:00
11:00 PM,51.8,46.4,82,29.83,6.2,NE,3.5,-,N/A,,Scattered Clouds,50,2013-03-01 22:00:00
11:30 PM,53.6,44.6,72,29.83,6.2,NNE,18.4,-,N/A,,Scattered Clouds,20,2013-03-01 22:30:00